RYR6ME LEPA-ELLX
Flight info
| Callsign | RYR6ME |
|---|---|
| Flight time | N/A |
| Altitude | 36000 |
| Route | MEROS N853 LUMAS DCT MAXIR DCT LUSOL DCT BODRU DCT OKTET DCT IRMAR DCT KINES DCT VANAS DCT MOBLO DCT UBIMA DCT GILIR DCT PENDU DCT IXILU DCT EPL G21 GIVOR |
| Aircraft | A320/M-SDE3FGHIRWY/LB1 |
Departure
| Time | 2026-05-01 12:16 |
|---|---|
| Airport | Palma de Mallorca Airport (LEPA) |
Arrival
| Time | N/A |
|---|---|
| Airport | Luxembourg-Findel International Airport (ELLX) |
| Time | Latitude | Longitude | Altitude | Speed | Heading |
|---|---|---|---|---|---|
| 2026-05-01 11:19 | 39.55002 | 2.73725 | 39 ft | 0 kts | 239° |
| 2026-05-01 12:07 | 39.55012 | 2.73748 | 36 ft | 4 kts | 239° |
| 2026-05-01 12:07 | 39.55026 | 2.73778 | 36 ft | 4 kts | 240° |
| 2026-05-01 12:07 | 39.55037 | 2.73803 | 34 ft | 4 kts | 233° |
| 2026-05-01 12:08 | 39.55056 | 2.73822 | 36 ft | 4 kts | 187° |
| 2026-05-01 12:08 | 39.55081 | 2.73818 | 36 ft | 4 kts | 150° |
| 2026-05-01 12:08 | 39.55101 | 2.73802 | 34 ft | 2 kts | 149° |
| 2026-05-01 12:08 | 39.55102 | 2.73801 | 38 ft | 0 kts | 149° |
| 2026-05-01 12:10 | 39.55092 | 2.73809 | 36 ft | 4 kts | 149° |
| 2026-05-01 12:11 | 39.54983 | 2.73894 | 38 ft | 14 kts | 148° |
| 2026-05-01 12:11 | 39.54884 | 2.73970 | 38 ft | 18 kts | 150° |
| 2026-05-01 12:11 | 39.54779 | 2.73950 | 38 ft | 16 kts | 191° |
| 2026-05-01 12:12 | 39.54686 | 2.73909 | 38 ft | 15 kts | 234° |
| 2026-05-01 12:12 | 39.54633 | 2.73799 | 38 ft | 15 kts | 239° |
| 2026-05-01 12:12 | 39.54577 | 2.73678 | 38 ft | 17 kts | 239° |
| 2026-05-01 12:12 | 39.54515 | 2.73544 | 38 ft | 18 kts | 239° |
| 2026-05-01 12:13 | 39.54445 | 2.73398 | 38 ft | 20 kts | 238° |
| 2026-05-01 12:13 | 39.54374 | 2.73249 | 38 ft | 19 kts | 238° |
| 2026-05-01 12:13 | 39.54298 | 2.73173 | 38 ft | 11 kts | 159° |
| 2026-05-01 12:13 | 39.54272 | 2.73220 | 38 ft | 0 kts | 106° |
| 2026-05-01 12:14 | 39.54271 | 2.73223 | 38 ft | 2 kts | 104° |
| 2026-05-01 12:14 | 39.54268 | 2.73269 | 38 ft | 8 kts | 91° |
| 2026-05-01 12:15 | 39.54265 | 2.73367 | 38 ft | 14 kts | 97° |
| 2026-05-01 12:15 | 39.54285 | 2.73506 | 37 ft | 21 kts | 59° |
| 2026-05-01 12:15 | 39.54486 | 2.73928 | 38 ft | 90 kts | 58° |
| 2026-05-01 12:15 | 39.54917 | 2.74843 | 37 ft | 146 kts | 59° |
| 2026-05-01 12:16 | 39.55494 | 2.76054 | 424 ft | 159 kts | 58° |
| 2026-05-01 12:16 | 39.56060 | 2.77270 | 1197 ft | 155 kts | 60° |
| 2026-05-01 12:16 | 39.56619 | 2.78476 | 1826 ft | 165 kts | 60° |
| 2026-05-01 12:16 | 39.57239 | 2.79843 | 2225 ft | 187 kts | 60° |
| 2026-05-01 12:17 | 39.57935 | 2.81382 | 2681 ft | 207 kts | 62° |
| 2026-05-01 12:17 | 39.58669 | 2.83002 | 3478 ft | 210 kts | 62° |
| 2026-05-01 12:17 | 39.59419 | 2.84660 | 4098 ft | 215 kts | 62° |
| 2026-05-01 12:17 | 39.60179 | 2.86341 | 4946 ft | 218 kts | 62° |
| 2026-05-01 12:18 | 39.60955 | 2.88053 | 5721 ft | 222 kts | 62° |
| 2026-05-01 12:18 | 39.61747 | 2.89794 | 6470 ft | 226 kts | 63° |
| 2026-05-01 12:18 | 39.62559 | 2.91590 | 7047 ft | 240 kts | 63° |
| 2026-05-01 12:18 | 39.63425 | 2.93574 | 7438 ft | 265 kts | 62° |
| 2026-05-01 12:19 | 39.64352 | 2.95725 | 7977 ft | 279 kts | 62° |
| 2026-05-01 12:19 | 39.65563 | 2.97731 | 8668 ft | 288 kts | 39° |
| 2026-05-01 12:19 | 39.67252 | 2.99177 | 9428 ft | 294 kts | 31° |
| 2026-05-01 12:19 | 39.69018 | 3.00562 | 10193 ft | 300 kts | 30° |
| 2026-05-01 12:20 | 39.70843 | 3.01983 | 10656 ft | 316 kts | 30° |
| 2026-05-01 12:20 | 39.72801 | 3.03506 | 10891 ft | 339 kts | 30° |
| 2026-05-01 12:20 | 39.74864 | 3.05117 | 11395 ft | 350 kts | 31° |
| 2026-05-01 12:20 | 39.76959 | 3.06760 | 12168 ft | 353 kts | 30° |
| 2026-05-01 12:21 | 39.79068 | 3.08418 | 12907 ft | 356 kts | 31° |
| 2026-05-01 12:21 | 39.81197 | 3.10092 | 13663 ft | 359 kts | 30° |
| 2026-05-01 12:21 | 39.83340 | 3.11777 | 14346 ft | 362 kts | 30° |
| 2026-05-01 12:21 | 39.85503 | 3.13483 | 14987 ft | 365 kts | 30° |
| 2026-05-01 12:22 | 39.87683 | 3.15206 | 15611 ft | 368 kts | 29° |
| 2026-05-01 12:22 | 39.89880 | 3.16947 | 16223 ft | 372 kts | 30° |
| 2026-05-01 12:22 | 39.92097 | 3.18703 | 16840 ft | 375 kts | 30° |
| 2026-05-01 12:22 | 39.94336 | 3.20474 | 17449 ft | 378 kts | 31° |
| 2026-05-01 12:23 | 39.96595 | 3.22259 | 18061 ft | 381 kts | 30° |
| 2026-05-01 12:23 | 39.98875 | 3.24063 | 18646 ft | 385 kts | 30° |
| 2026-05-01 12:23 | 40.01171 | 3.25882 | 19173 ft | 388 kts | 30° |
| 2026-05-01 12:23 | 40.03488 | 3.27714 | 19705 ft | 391 kts | 30° |
| 2026-05-01 12:24 | 40.05822 | 3.29563 | 20233 ft | 394 kts | 31° |
| 2026-05-01 12:24 | 40.08171 | 3.31430 | 20762 ft | 397 kts | 30° |
| 2026-05-01 12:24 | 40.10542 | 3.33315 | 21283 ft | 400 kts | 31° |
| 2026-05-01 12:24 | 40.12930 | 3.35218 | 21807 ft | 404 kts | 31° |
| 2026-05-01 12:25 | 40.15335 | 3.37142 | 22319 ft | 407 kts | 31° |
| 2026-05-01 12:25 | 40.20202 | 3.41028 | 23307 ft | 413 kts | 31° |
| 2026-05-01 12:25 | 40.22661 | 3.42990 | 23812 ft | 415 kts | 30° |
| 2026-05-01 12:26 | 40.25136 | 3.44968 | 24204 ft | 418 kts | 31° |
| 2026-05-01 12:26 | 40.30133 | 3.48979 | 24951 ft | 424 kts | 31° |
| 2026-05-01 12:26 | 40.32621 | 3.50977 | 25325 ft | 426 kts | 31° |
| 2026-05-01 12:27 | 40.35191 | 3.53036 | 25699 ft | 429 kts | 30° |
| 2026-05-01 12:27 | 40.40312 | 3.57134 | 26408 ft | 433 kts | 30° |
| 2026-05-01 12:28 | 40.45446 | 3.61256 | 27098 ft | 438 kts | 31° |
| 2026-05-01 12:28 | 40.48049 | 3.63359 | 27427 ft | 440 kts | 31° |
| 2026-05-01 12:28 | 40.53298 | 3.67608 | 28068 ft | 446 kts | 30° |
| 2026-05-01 12:29 | 40.55945 | 3.69747 | 28378 ft | 448 kts | 30° |
| 2026-05-01 12:29 | 40.58609 | 3.71898 | 28682 ft | 451 kts | 30° |
| 2026-05-01 12:29 | 40.63983 | 3.76245 | 29275 ft | 455 kts | 30° |
| 2026-05-01 12:30 | 40.69406 | 3.80645 | 29833 ft | 460 kts | 30° |
| 2026-05-01 12:30 | 40.72133 | 3.82865 | 30115 ft | 462 kts | 30° |
| 2026-05-01 12:30 | 40.74873 | 3.85094 | 30366 ft | 464 kts | 30° |
| 2026-05-01 12:31 | 40.77622 | 3.87330 | 30582 ft | 465 kts | 30° |
| 2026-05-01 12:31 | 40.80383 | 3.89577 | 30810 ft | 467 kts | 30° |
| 2026-05-01 12:31 | 40.83152 | 3.91834 | 31020 ft | 468 kts | 30° |
| 2026-05-01 12:31 | 40.85929 | 3.94099 | 31251 ft | 469 kts | 30° |
| 2026-05-01 12:32 | 40.88705 | 3.96368 | 31535 ft | 469 kts | 30° |
| 2026-05-01 12:32 | 40.94243 | 4.00907 | 32103 ft | 468 kts | 30° |
| 2026-05-01 12:32 | 40.97010 | 4.03175 | 32391 ft | 467 kts | 30° |
| 2026-05-01 12:33 | 40.99775 | 4.05439 | 32679 ft | 467 kts | 30° |
| 2026-05-01 12:33 | 41.02532 | 4.07704 | 32964 ft | 467 kts | 30° |
| 2026-05-01 12:33 | 41.05289 | 4.09973 | 33249 ft | 466 kts | 31° |
| 2026-05-01 12:33 | 41.08038 | 4.12241 | 33538 ft | 466 kts | 30° |
| 2026-05-01 12:34 | 41.10792 | 4.14516 | 33809 ft | 466 kts | 30° |
| 2026-05-01 12:34 | 41.13544 | 4.16786 | 34093 ft | 466 kts | 30° |
| 2026-05-01 12:34 | 41.16296 | 4.19055 | 34351 ft | 465 kts | 30° |
| 2026-05-01 12:34 | 41.19040 | 4.21325 | 34611 ft | 465 kts | 30° |
| 2026-05-01 12:35 | 41.21781 | 4.23590 | 34873 ft | 464 kts | 30° |
| 2026-05-01 12:35 | 41.24517 | 4.25850 | 35120 ft | 463 kts | 30° |
| 2026-05-01 12:35 | 41.27251 | 4.28116 | 35361 ft | 463 kts | 30° |
| 2026-05-01 12:35 | 41.29980 | 4.30379 | 35577 ft | 462 kts | 30° |
| 2026-05-01 12:36 | 41.32709 | 4.32647 | 35790 ft | 462 kts | 30° |
| 2026-05-01 12:36 | 41.35396 | 4.34884 | 36000 ft | 462 kts | 30° |
| 2026-05-01 12:36 | 41.38121 | 4.37153 | 36191 ft | 462 kts | 30° |
| 2026-05-01 12:36 | 41.40841 | 4.39423 | 36245 ft | 461 kts | 30° |